createdAt,value
2019-03-27T00:03:23.704Z,3.37
2019-03-27T00:07:30.167Z,4.10
2019-03-27T00:11:36.538Z,5.20
2019-03-27T00:15:42.968Z,4.70
2019-03-27T00:20:07.755Z,3.80
2019-03-27T00:24:36.693Z,4.37
2019-03-27T00:29:01.150Z,5.23
2019-03-27T00:33:07.718Z,3.37
2019-03-27T00:37:13.953Z,4.95
2019-03-27T00:41:20.228Z,4.25
2019-03-27T00:46:00.247Z,3.60
2019-03-27T00:50:08.686Z,4.90
2019-03-27T00:54:15.135Z,4.55
2019-03-27T00:58:21.660Z,3.67
2019-03-27T01:02:28.402Z,4.85
2019-03-27T01:06:34.674Z,4.53
2019-03-27T01:10:41.056Z,3.83
2019-03-27T01:14:47.316Z,4.53
2019-03-27T01:18:54.007Z,3.92
2019-03-27T01:23:00.351Z,3.33
2019-03-27T01:27:06.691Z,4.17
2019-03-27T01:31:12.920Z,3.37
2019-03-27T01:35:19.254Z,4.50
2019-03-27T01:39:25.470Z,4.33
2019-03-27T01:43:31.886Z,3.22
2019-03-27T01:47:38.166Z,3.58
2019-03-27T01:51:44.691Z,3.60
2019-03-27T01:55:51.078Z,4.12
2019-03-27T01:59:57.299Z,3.27
2019-03-27T02:04:05.724Z,4.28
2019-03-27T02:08:12.009Z,3.10
2019-03-27T02:12:22.172Z,3.90
2019-03-27T02:21:17.084Z,3.77
2019-03-27T02:25:23.526Z,4.55
2019-03-27T02:29:29.868Z,4.20
2019-03-27T02:33:36.166Z,4.55
2019-03-27T02:37:42.480Z,4.67
2019-03-27T02:41:49.835Z,2.72
2019-03-27T02:45:56.498Z,3.05
2019-03-27T02:50:03.251Z,3.55
2019-03-27T02:54:10.552Z,4.08
2019-03-27T02:58:16.804Z,3.30
2019-03-27T03:02:25.766Z,4.25
2019-03-27T03:06:32.531Z,3.52
2019-03-27T03:10:39.154Z,4.37
2019-03-27T03:14:46.664Z,3.75
2019-03-27T03:18:52.896Z,4.15
2019-03-27T03:22:59.230Z,4.37
2019-03-27T03:27:05.564Z,4.58
2019-03-27T03:31:11.822Z,4.85
2019-03-27T03:35:18.145Z,3.60
2019-03-27T03:39:25.932Z,4.70
2019-03-27T03:43:32.341Z,5.00
2019-03-27T03:47:38.697Z,4.53
2019-03-27T03:51:45.096Z,3.50
2019-03-27T03:55:51.523Z,5.03
2019-03-27T03:59:57.977Z,4.17
2019-03-27T04:04:04.463Z,4.90
2019-03-27T04:09:05.299Z,3.95
2019-03-27T04:13:35.043Z,4.42
2019-03-27T04:22:29.074Z,4.90
2019-03-27T04:26:50.970Z,3.62
2019-03-27T04:31:04.860Z,5.30
2019-03-27T04:35:12.713Z,4.65
2019-03-27T04:39:19.102Z,4.47
2019-03-27T04:43:26.712Z,3.70
2019-03-27T04:47:33.914Z,4.92
2019-03-27T04:51:47.096Z,3.45
2019-03-27T04:56:33.767Z,4.30
2019-03-27T05:00:40.119Z,3.47
2019-03-27T05:04:48.085Z,4.97
2019-03-27T05:08:54.790Z,4.30
2019-03-27T05:13:29.652Z,3.85
2019-03-27T05:17:45.667Z,3.72
2019-03-27T05:21:44.789Z,4.05
2019-03-27T05:25:51.140Z,4.83
2019-03-27T05:30:00.393Z,4.22
2019-03-27T05:34:07.155Z,4.13
2019-03-27T05:38:13.652Z,3.62
2019-03-27T05:42:21.396Z,3.50
2019-03-27T05:46:30.508Z,3.40
2019-03-27T05:50:38.190Z,3.70
2019-03-27T05:54:47.464Z,3.40
2019-03-27T05:59:15.717Z,3.53
2019-03-27T06:03:27.427Z,5.22
2019-03-27T06:07:33.866Z,5.08
2019-03-27T06:11:41.765Z,3.70
2019-03-27T06:15:48.348Z,3.77
2019-03-27T06:19:55.045Z,4.37
2019-03-27T06:24:04.556Z,4.28
2019-03-27T06:28:10.860Z,7.22
2019-03-27T06:32:17.286Z,6.58
2019-03-27T06:36:26.133Z,7.37
2019-03-27T06:40:33.064Z,7.00
2019-03-27T06:44:41.181Z,7.53
2019-03-27T06:48:47.788Z,7.42
2019-03-27T06:52:54.001Z,7.00
2019-03-27T06:57:01.292Z,5.78
2019-03-27T07:01:07.682Z,6.60
2019-03-27T07:05:13.940Z,6.15
2019-03-27T07:09:20.204Z,6.08
2019-03-27T07:13:26.472Z,6.45
2019-03-27T07:17:32.788Z,5.80
2019-03-27T07:21:38.929Z,5.15
2019-03-27T07:25:45.078Z,6.42
2019-03-27T07:29:52.815Z,6.17
2019-03-27T07:33:58.986Z,8.68
2019-03-27T07:38:05.201Z,5.62
2019-03-27T07:42:11.553Z,4.67
2019-03-27T07:46:17.800Z,6.20
2019-03-27T07:50:24.000Z,4.60
2019-03-27T07:54:30.299Z,5.80
2019-03-27T07:58:37.330Z,6.92
2019-03-27T08:02:45.168Z,8.83
2019-03-27T08:06:51.335Z,6.65
2019-03-27T08:10:57.591Z,4.67
2019-03-27T08:15:03.893Z,4.33
2019-03-27T08:19:10.097Z,5.55
2019-03-27T08:23:16.461Z,6.35
2019-03-27T08:27:22.672Z,8.00
2019-03-27T08:31:28.910Z,4.50
2019-03-27T08:35:35.177Z,4.87
2019-03-27T08:39:41.433Z,5.20
2019-03-27T08:43:47.676Z,5.95
2019-03-27T08:47:53.930Z,7.95
2019-03-27T08:52:00.181Z,7.78
2019-03-27T08:56:06.535Z,6.37
2019-03-27T09:00:13.600Z,5.83
2019-03-27T09:04:19.918Z,7.20
2019-03-27T09:08:26.619Z,6.37
2019-03-27T09:12:32.871Z,5.62
2019-03-27T09:16:39.116Z,5.22
2019-03-27T09:20:45.287Z,5.78
2019-03-27T09:24:51.592Z,10.08
2019-03-27T09:28:57.830Z,6.85
2019-03-27T09:33:04.034Z,9.23
2019-03-27T09:37:10.422Z,5.50
2019-03-27T09:41:16.687Z,7.10
2019-03-27T09:45:24.114Z,5.97
2019-03-27T09:49:30.417Z,7.92
2019-03-27T09:53:36.643Z,6.62
2019-03-27T09:57:43.065Z,5.15
2019-03-27T10:01:49.460Z,6.67
2019-03-27T10:05:55.692Z,6.55
2019-03-27T10:10:01.932Z,5.97
2019-03-27T10:14:08.202Z,8.45
2019-03-27T10:18:16.019Z,5.62
2019-03-27T10:22:22.272Z,7.37
2019-03-27T10:26:28.592Z,8.43
2019-03-27T10:30:36.207Z,7.00
2019-03-27T10:34:43.510Z,8.10
2019-03-27T10:38:49.765Z,5.08
2019-03-27T10:42:55.975Z,6.25
2019-03-27T10:47:03.149Z,8.93
2019-03-27T10:51:09.494Z,7.53
2019-03-27T10:55:15.873Z,5.35
2019-03-27T10:59:22.140Z,7.05
2019-03-27T11:03:28.338Z,5.83
2019-03-27T11:07:34.654Z,9.08
2019-03-27T11:11:41.262Z,6.67
2019-03-27T11:15:47.439Z,7.00
2019-03-27T11:19:53.630Z,5.85
2019-03-27T11:24:00.262Z,6.80
2019-03-27T11:28:07.191Z,5.53
2019-03-27T11:32:13.470Z,6.22
2019-03-27T11:36:19.781Z,7.20
2019-03-27T11:40:26.026Z,5.92
2019-03-27T11:44:32.286Z,7.78
2019-03-27T11:48:39.288Z,7.08
2019-03-27T11:52:45.565Z,6.42
2019-03-27T11:56:51.817Z,7.17
2019-03-27T12:00:58.113Z,8.08
2019-03-27T12:05:05.413Z,6.20
2019-03-27T12:09:11.560Z,5.97
2019-03-27T12:13:17.777Z,5.60
2019-03-27T12:17:24.384Z,8.88
2019-03-27T12:21:30.607Z,5.62
2019-03-27T12:25:36.848Z,6.90
2019-03-27T12:29:43.427Z,7.50
2019-03-27T12:33:49.936Z,5.47
2019-03-27T12:37:56.462Z,6.45
2019-03-27T12:42:02.837Z,7.47
2019-03-27T12:46:09.062Z,7.03
2019-03-27T12:50:15.354Z,5.70
2019-03-27T12:54:21.631Z,8.98
2019-03-27T12:58:27.870Z,9.18
2019-03-27T13:02:34.187Z,6.42
2019-03-27T13:06:40.385Z,8.38
2019-03-27T13:10:47.800Z,7.92
2019-03-27T13:14:54.033Z,6.40
2019-03-27T13:19:00.461Z,5.80
2019-03-27T13:23:06.637Z,7.17
2019-03-27T13:27:12.893Z,5.78
2019-03-27T13:31:19.166Z,7.95
2019-03-27T13:35:25.477Z,6.75
2019-03-27T13:39:31.768Z,7.00
2019-03-27T13:43:37.965Z,7.70
2019-03-27T13:47:44.263Z,7.67
2019-03-27T13:51:50.476Z,7.47
2019-03-27T13:55:57.131Z,7.80
2019-03-27T14:00:03.424Z,7.67
2019-03-27T14:04:23.123Z,6.00
2019-03-27T14:08:34.486Z,7.05
2019-03-27T14:12:40.813Z,6.50
2019-03-27T14:16:47.093Z,6.67
2019-03-27T14:20:53.360Z,5.22
2019-03-27T14:24:59.763Z,6.03
2019-03-27T14:29:06.456Z,5.20
2019-03-27T14:33:12.753Z,6.00
2019-03-27T14:37:19.028Z,6.40
2019-03-27T14:41:25.529Z,6.15
2019-03-27T14:45:31.789Z,5.53
2019-03-27T14:49:39.939Z,5.65
2019-03-27T14:53:46.344Z,6.62
2019-03-27T14:57:52.618Z,4.95
2019-03-27T15:01:58.904Z,6.03
2019-03-27T15:06:05.610Z,4.85
2019-03-27T15:10:12.085Z,6.28
2019-03-27T15:14:18.420Z,7.12
2019-03-27T15:18:25.719Z,6.03
2019-03-27T15:22:32.257Z,4.53
2019-03-27T15:26:40.444Z,6.15
2019-03-27T15:30:47.152Z,4.58
2019-03-27T15:34:56.809Z,7.03
2019-03-27T15:39:04.796Z,5.40
2019-03-27T15:43:11.620Z,5.85
2019-03-27T15:47:18.105Z,5.75
2019-03-27T15:51:24.609Z,5.45
2019-03-27T15:55:30.950Z,5.35
2019-03-27T15:59:37.251Z,5.62
2019-03-27T16:03:43.595Z,5.00
2019-03-27T16:07:50.095Z,6.22
2019-03-27T16:11:56.365Z,5.42
2019-03-27T16:16:02.651Z,5.15
2019-03-27T16:20:08.960Z,5.25
2019-03-27T16:24:15.349Z,4.45
2019-03-27T16:28:21.593Z,4.10
2019-03-27T16:32:30.725Z,4.50
2019-03-27T16:36:37.945Z,4.25
2019-03-27T16:40:48.583Z,4.60
2019-03-27T16:44:54.953Z,6.37
2019-03-27T16:49:01.342Z,5.95
2019-03-27T16:53:08.888Z,6.87
2019-03-27T16:57:15.146Z,4.28
2019-03-27T17:01:22.602Z,4.90
2019-03-27T17:05:28.939Z,6.65
2019-03-27T17:09:35.197Z,7.00
2019-03-27T17:13:41.457Z,6.55
2019-03-27T17:17:47.690Z,5.78
2019-03-27T17:21:54.059Z,6.90
2019-03-27T17:26:00.409Z,9.05
2019-03-27T17:30:07.462Z,6.67
2019-03-27T17:34:13.904Z,7.55
2019-03-27T17:38:20.309Z,6.70
2019-03-27T17:42:26.841Z,7.40
2019-03-27T17:46:33.302Z,8.43
2019-03-27T17:50:40.815Z,6.87
2019-03-27T17:59:40.378Z,8.75
2019-03-27T18:03:48.056Z,6.50
2019-03-27T18:07:54.639Z,8.68
2019-03-27T18:12:01.141Z,10.55
2019-03-27T18:16:08.277Z,8.05
2019-03-27T18:20:14.516Z,8.80
2019-03-27T18:24:22.550Z,7.85
2019-03-27T18:28:28.831Z,9.18
2019-03-27T18:32:35.157Z,6.83
2019-03-27T18:36:42.860Z,6.67
2019-03-27T18:40:49.177Z,7.03
2019-03-27T18:44:55.584Z,7.00
2019-03-27T18:49:02.469Z,10.00
2019-03-27T18:53:08.776Z,7.87
2019-03-27T18:57:15.669Z,7.45
2019-03-27T19:01:22.059Z,10.28
2019-03-27T19:05:28.676Z,10.75
2019-03-27T19:09:34.934Z,7.55
2019-03-27T19:13:41.889Z,7.40
2019-03-27T19:17:48.973Z,9.68
2019-03-27T19:21:55.443Z,9.73
2019-03-27T19:26:02.273Z,10.15
2019-03-27T19:30:09.508Z,12.80
2019-03-27T19:34:16.527Z,11.83
2019-03-27T19:38:22.970Z,14.33
2019-03-27T19:42:30.878Z,9.70
2019-03-27T19:46:37.871Z,11.15
2019-03-27T19:50:44.264Z,11.35
2019-03-27T19:54:52.251Z,12.75
2019-03-27T19:58:58.604Z,13.05
2019-03-27T20:03:06.767Z,10.78
2019-03-27T20:07:14.071Z,10.03
2019-03-27T20:11:23.504Z,11.57
2019-03-27T20:15:30.955Z,9.53
2019-03-27T20:19:37.363Z,14.00
2019-03-27T20:23:43.746Z,13.08
2019-03-27T20:27:51.264Z,11.93
2019-03-27T20:31:58.039Z,10.15
2019-03-27T20:36:04.677Z,11.53
2019-03-27T20:40:13.535Z,12.15
2019-03-27T20:44:20.397Z,10.25
2019-03-27T20:48:27.363Z,10.82
2019-03-27T20:52:33.652Z,12.00
2019-03-27T20:56:40.079Z,11.78
2019-03-27T21:00:47.179Z,10.80
2019-03-27T21:04:53.580Z,12.23
2019-03-27T21:09:00.182Z,10.53
2019-03-27T21:13:08.397Z,10.30
2019-03-27T21:17:14.846Z,9.35
2019-03-27T21:21:22.229Z,10.55
2019-03-27T21:25:29.846Z,11.25
2019-03-27T21:29:36.134Z,10.90
2019-03-27T21:33:42.461Z,10.30
2019-03-27T21:37:50.479Z,13.10
2019-03-27T21:41:56.927Z,12.95
2019-03-27T21:46:05.746Z,12.53
2019-03-27T21:50:12.327Z,12.37
2019-03-27T21:54:18.707Z,11.10
2019-03-27T21:58:25.700Z,13.00
2019-03-27T22:02:31.978Z,13.25
2019-03-27T22:06:38.285Z,11.85
2019-03-27T22:10:44.601Z,8.60
2019-03-27T22:14:52.031Z,12.13
2019-03-27T22:18:58.344Z,13.35
2019-03-27T22:23:05.797Z,9.75
2019-03-27T22:27:12.369Z,9.83
2019-03-27T22:31:18.787Z,11.73
2019-03-27T22:35:25.150Z,8.25
2019-03-27T22:39:31.373Z,10.85
2019-03-27T22:43:40.942Z,8.40
2019-03-27T22:47:48.495Z,11.83
2019-03-27T22:51:54.779Z,13.70
2019-03-27T22:56:02.142Z,11.30
2019-03-27T23:00:10.233Z,14.43
2019-03-27T23:04:18.097Z,12.03
2019-03-27T23:08:24.629Z,13.95
2019-03-27T23:12:30.945Z,10.85
2019-03-27T23:16:39.808Z,11.65
2019-03-27T23:20:46.247Z,15.95
2019-03-27T23:24:52.489Z,13.03
2019-03-27T23:28:58.770Z,9.05
2019-03-27T23:33:05.109Z,11.05
2019-03-27T23:37:11.946Z,11.28
2019-03-27T23:41:18.869Z,8.75
2019-03-27T23:45:25.344Z,12.82
2019-03-27T23:49:31.580Z,10.45
2019-03-27T23:53:39.077Z,11.40
2019-03-27T23:57:46.054Z,11.75
